Time;durP1;ratioP1;P1;durP2;ratioP2;P2;SDS_P1;SDS_P2;PMS_P1;PMS_P2;Temp;Humidity;BMP_temperature;BMP_pressure;BME280_temperature;BME280_humidity;BME280_pressure;Samples;Min_cycle;Max_cycle;Signal;HPM_P1;HPM_P2
2024/04/17 00:01:10;;;;;;;4.57;2.10;;;7.30;99.90;;;;;;5492001;26;20248;-67
2024/04/17 00:03:38;;;;;;;1.97;1.10;;;7.30;99.90;;;;;;5491829;26;20422;-67
2024/04/17 00:06:04;;;;;;;1.20;1.00;;;7.40;99.90;;;;;;5491986;26;20256;-67
2024/04/17 00:08:32;;;;;;;1.57;1.23;;;7.30;99.90;;;;;;5492016;26;20451;-67
2024/04/17 00:10:58;;;;;;;3.00;1.40;;;7.30;99.90;;;;;;5491786;26;20451;-67
2024/04/17 00:13:26;;;;;;;2.23;1.00;;;7.20;99.90;;;;;;5491782;26;20502;-67
2024/04/17 00:15:57;;;;;;;2.80;1.47;;;7.10;99.90;;;;;;5491797;26;20254;-67
2024/04/17 00:18:26;;;;;;;1.80;1.30;;;7.10;99.90;;;;;;5491804;26;20602;-67
2024/04/17 00:20:51;;;;;;;2.03;1.40;;;7.20;99.90;;;;;;5491720;26;20490;-67
2024/04/17 00:23:20;;;;;;;1.37;1.27;;;7.20;99.90;;;;;;5491714;26;20458;-67
2024/04/17 00:25:46;;;;;;;1.20;1.10;;;7.20;99.90;;;;;;5491661;26;20729;-67
2024/04/17 00:28:14;;;;;;;2.10;1.17;;;7.20;99.90;;;;;;5491583;26;20442;-67
2024/04/17 00:30:40;;;;;;;1.33;1.20;;;7.30;99.90;;;;;;5491553;26;20450;-67
2024/04/17 00:33:10;;;;;;;1.60;1.50;;;7.30;99.90;;;;;;5491476;26;20503;-67
2024/04/17 00:35:36;;;;;;;1.30;1.20;;;7.30;99.90;;;;;;5490567;26;20724;-67
2024/04/17 00:38:04;;;;;;;3.30;1.40;;;7.30;99.90;;;;;;5491489;26;20447;-67
2024/04/17 00:40:31;;;;;;;3.97;1.30;;;7.30;99.90;;;;;;5491508;26;20218;-67
2024/04/17 00:43:02;;;;;;;2.87;1.50;;;7.20;99.90;;;;;;5491713;26;21022;-67
2024/04/17 00:45:30;;;;;;;1.77;1.67;;;7.10;99.90;;;;;;5491620;26;20463;-67
2024/04/17 00:47:58;;;;;;;1.30;1.20;;;6.90;99.90;;;;;;5491323;26;20499;-67
2024/04/17 00:50:26;;;;;;;1.87;1.60;;;6.90;99.90;;;;;;5491291;26;20473;-67
2024/04/17 00:52:56;;;;;;;1.83;1.50;;;6.90;99.90;;;;;;5491280;26;20831;-67
2024/04/17 00:55:21;;;;;;;3.03;1.53;;;6.90;99.90;;;;;;5491137;26;20459;-67
2024/04/17 00:57:50;;;;;;;2.50;1.90;;;6.80;99.90;;;;;;5491192;26;20836;-66
2024/04/17 01:00:16;;;;;;;1.87;1.20;;;6.80;99.90;;;;;;5491075;26;20437;-67
2024/04/17 01:02:44;;;;;;;1.53;1.33;;;6.80;99.90;;;;;;5491017;26;20480;-67
2024/04/17 01:05:10;;;;;;;1.42;1.20;;;6.80;99.90;;;;;;5491103;26;20214;-66
2024/04/17 01:07:41;;;;;;;2.30;1.50;;;6.80;99.90;;;;;;5490942;26;20210;-66
2024/04/17 01:10:07;;;;;;;1.20;1.03;;;6.90;99.90;;;;;;5491061;26;20249;-66
2024/04/17 01:12:37;;;;;;;1.40;1.30;;;6.80;99.90;;;;;;5490980;26;20439;-67
2024/04/17 01:15:08;;;;;;;2.23;1.37;;;6.80;99.90;;;;;;5491139;26;20222;-65
2024/04/17 01:17:36;;;;;;;1.50;1.37;;;6.90;99.90;;;;;;5490906;26;20454;-65
2024/04/17 01:20:02;;;;;;;1.50;1.40;;;6.90;99.90;;;;;;5490709;26;20454;-65
2024/04/17 01:22:30;;;;;;;4.60;1.37;;;7.00;99.90;;;;;;5490715;26;20507;-65
2024/04/17 01:24:58;;;;;;;2.77;1.60;;;6.90;99.90;;;;;;5490636;26;20249;-65
2024/04/17 01:27:26;;;;;;;2.40;1.17;;;7.00;99.90;;;;;;5490885;26;20502;-65
2024/04/17 01:29:52;;;;;;;2.27;1.50;;;7.00;99.90;;;;;;5490668;26;20423;-65
2024/04/17 01:32:20;;;;;;;3.63;1.50;;;7.00;99.90;;;;;;5490705;26;20498;-65
2024/04/17 01:34:46;;;;;;;1.30;1.20;;;6.90;99.90;;;;;;5490495;26;20214;-65
2024/04/17 01:37:14;;;;;;;1.50;1.40;;;6.90;99.90;;;;;;5490867;26;20447;-65
2024/04/17 01:39:39;;;;;;;4.80;1.77;;;6.70;99.90;;;;;;5490514;26;20241;-65
2024/04/17 01:42:11;;;;;;;1.97;1.13;;;6.60;99.90;;;;;;5490640;26;20875;-65
2024/04/17 01:44:36;;;;;;;2.50;1.50;;;6.60;99.90;;;;;;5490408;26;20237;-66
2024/04/17 01:47:05;;;;;;;2.60;1.63;;;6.50;99.90;;;;;;5490494;26;20475;-65
2024/04/17 01:49:30;;;;;;;1.87;1.10;;;6.50;99.90;;;;;;5490362;26;20214;-65
2024/04/17 01:51:58;;;;;;;3.70;1.80;;;6.50;99.90;;;;;;5490304;26;21041;-65
2024/04/17 01:54:24;;;;;;;1.40;1.30;;;6.50;99.90;;;;;;5490189;26;20561;-65
2024/04/17 01:56:52;;;;;;;4.23;1.60;;;6.40;99.90;;;;;;5490427;26;20512;-65
2024/04/17 01:59:20;;;;;;;2.53;1.35;;;6.40;99.90;;;;;;5490256;26;20206;-65
2024/04/17 02:01:48;;;;;;;1.60;1.50;;;6.40;99.90;;;;;;5490280;26;20210;-65
2024/04/17 02:04:14;;;;;;;3.28;1.50;;;6.40;99.90;;;;;;5490078;26;21048;-65
2024/04/17 02:06:42;;;;;;;2.93;1.77;;;6.50;99.90;;;;;;5490112;26;20218;-65
2024/04/17 02:09:08;;;;;;;2.30;1.40;;;6.50;99.90;;;;;;5490144;26;20681;-65
2024/04/17 02:11:36;;;;;;;1.80;1.70;;;6.50;99.90;;;;;;5490054;26;20489;-65
2024/04/17 02:14:01;;;;;;;1.60;1.50;;;6.50;99.90;;;;;;5490060;26;20233;-65
2024/04/17 02:16:32;;;;;;;2.40;1.23;;;6.60;99.90;;;;;;5489923;26;20458;-65
2024/04/17 02:18:58;;;;;;;3.97;1.40;;;6.50;99.90;;;;;;5490098;26;20534;-65
2024/04/17 02:21:26;;;;;;;5.00;1.90;;;6.60;99.90;;;;;;5489957;26;20211;-65
2024/04/17 02:23:51;;;;;;;1.63;1.53;;;6.60;99.90;;;;;;5489675;26;20207;-65
2024/04/17 02:26:19;;;;;;;1.50;1.40;;;6.60;99.90;;;;;;5489915;26;20510;-65
2024/04/17 02:28:45;;;;;;;1.73;1.60;;;6.70;99.90;;;;;;5489749;26;20279;-65
2024/04/17 02:31:13;;;;;;;2.00;1.40;;;6.60;99.90;;;;;;5489675;26;20451;-65
2024/04/17 02:33:41;;;;;;;1.85;1.52;;;6.50;99.90;;;;;;5489767;26;20206;-65
2024/04/17 02:36:10;;;;;;;1.87;1.27;;;6.60;99.90;;;;;;5489635;26;20213;-65
2024/04/17 02:38:36;;;;;;;1.80;1.25;;;6.60;99.90;;;;;;5489702;26;20455;-65
2024/04/17 02:41:04;;;;;;;2.57;1.70;;;6.60;99.90;;;;;;5489582;26;20294;-65
2024/04/17 02:43:30;;;;;;;1.40;1.25;;;6.70;99.90;;;;;;5489420;26;20206;-65
2024/04/17 02:45:58;;;;;;;1.70;1.60;;;6.70;99.90;;;;;;5489773;26;20580;-65
2024/04/17 02:48:23;;;;;;;2.75;2.00;;;6.80;99.90;;;;;;5489603;26;20210;-65
2024/04/17 02:50:54;;;;;;;1.67;1.57;;;6.80;99.90;;;;;;5489434;26;20244;-65
2024/04/17 02:53:19;;;;;;;1.60;1.50;;;6.80;99.90;;;;;;5489341;26;20218;-65
2024/04/17 02:55:47;;;;;;;1.50;1.40;;;6.70;99.90;;;;;;5489619;26;20859;-65
2024/04/17 02:58:14;;;;;;;1.70;1.60;;;6.70;99.90;;;;;;5488582;26;20288;-65
2024/04/17 03:00:43;;;;;;;2.80;1.60;;;6.70;99.90;;;;;;5489266;26;20745;-65
2024/04/17 03:03:08;;;;;;;3.00;1.87;;;6.80;99.90;;;;;;5489145;26;20491;-65
2024/04/17 03:05:36;;;;;;;2.30;2.03;;;6.80;99.90;;;;;;5489391;26;20450;-65
2024/04/17 03:08:05;;;;;;;5.30;1.80;;;6.70;99.90;;;;;;5489151;26;20206;-65
2024/04/17 03:10:33;;;;;;;3.03;1.77;;;6.70;99.90;;;;;;5488880;26;20495;-65
2024/04/17 03:12:58;;;;;;;2.50;1.33;;;6.60;99.90;;;;;;5489035;26;20423;-66
2024/04/17 03:15:27;;;;;;;2.27;2.07;;;6.50;99.90;;;;;;5488994;26;20450;-65
2024/04/17 03:17:52;;;;;;;1.80;1.60;;;6.30;99.90;;;;;;5488925;26;20206;-65
2024/04/17 03:20:20;;;;;;;1.50;1.40;;;6.20;99.90;;;;;;5489056;26;20495;-65
2024/04/17 03:22:46;;;;;;;1.40;1.30;;;6.20;99.90;;;;;;5488860;26;20734;-65
2024/04/17 03:25:17;;;;;;;1.80;1.53;;;6.30;99.90;;;;;;5488763;26;20213;-65
2024/04/17 03:27:42;;;;;;;1.80;1.40;;;6.40;99.90;;;;;;5488838;26;20218;-65
2024/04/17 03:30:11;;;;;;;1.47;1.37;;;6.50;99.90;;;;;;5488743;26;20451;-65
2024/04/17 03:32:36;;;;;;;4.65;1.55;;;6.60;99.90;;;;;;5488760;26;20217;-65
2024/04/17 03:35:05;;;;;;;2.23;1.47;;;6.60;99.90;;;;;;5488704;26;20213;-65
2024/04/17 03:37:33;;;;;;;2.57;1.23;;;6.70;99.90;;;;;;5488582;26;20214;-65
2024/04/17 03:40:04;;;;;;;1.70;1.40;;;6.70;99.90;;;;;;5488544;26;20966;-65
2024/04/17 03:42:35;;;;;;;3.17;2.30;;;6.70;99.90;;;;;;5488593;26;20493;-66
2024/04/17 03:45:03;;;;;;;3.50;2.20;;;6.70;99.90;;;;;;5488510;26;20435;-65
2024/04/17 03:47:31;;;;;;;2.20;1.83;;;6.60;99.90;;;;;;5488386;26;20499;-65
2024/04/17 03:50:05;;;;;;;1.58;1.40;;;6.50;99.90;;;;;;5488407;26;20435;-65
2024/04/17 03:52:31;;;;;;;1.77;1.50;;;6.60;99.90;;;;;;5488412;26;20334;-65
2024/04/17 03:54:59;;;;;;;2.33;1.90;;;6.50;99.90;;;;;;5488219;26;20451;-65
2024/04/17 03:57:27;;;;;;;3.15;1.90;;;6.60;99.90;;;;;;5488218;26;20218;-65
2024/04/17 03:59:57;;;;;;;2.73;2.53;;;6.70;99.90;;;;;;5488224;26;20604;-65
2024/04/17 04:02:23;;;;;;;4.25;2.03;;;6.80;99.90;;;;;;5488235;26;20505;-65
2024/04/17 04:04:52;;;;;;;2.93;1.67;;;6.80;99.90;;;;;;5488085;26;20549;-65
2024/04/17 04:07:17;;;;;;;1.80;1.70;;;6.80;99.90;;;;;;5488033;26;20232;-65
2024/04/17 04:09:46;;;;;;;1.53;1.43;;;6.90;99.90;;;;;;5488054;26;20783;-67
2024/04/17 04:12:11;;;;;;;1.80;1.70;;;6.90;99.90;;;;;;5491665;26;20214;-67
2024/04/17 04:14:39;;;;;;;1.97;1.50;;;7.00;99.90;;;;;;5491729;26;20502;-67
2024/04/17 04:17:07;;;;;;;2.40;1.23;;;7.00;99.90;;;;;;5491675;26;20210;-65
2024/04/17 04:19:35;;;;;;;4.17;1.50;;;7.10;99.90;;;;;;5491462;26;20455;-65
2024/04/17 04:22:01;;;;;;;3.10;1.37;;;7.00;99.90;;;;;;5491488;26;20778;-65
2024/04/17 04:24:29;;;;;;;1.97;1.50;;;7.10;99.90;;;;;;5491508;26;20528;-65
2024/04/17 04:26:55;;;;;;;2.63;1.50;;;7.10;99.90;;;;;;5491507;26;20221;-65
2024/04/17 04:29:23;;;;;;;1.63;1.53;;;7.00;99.90;;;;;;5491492;26;20498;-65
2024/04/17 04:31:48;;;;;;;2.80;1.57;;;7.10;99.90;;;;;;5491296;26;20681;-65
2024/04/17 04:34:19;;;;;;;1.90;1.80;;;7.10;99.90;;;;;;5491441;26;20498;-65
2024/04/17 04:36:44;;;;;;;3.80;2.13;;;7.10;99.90;;;;;;5491405;26;20218;-66
2024/04/17 04:39:13;;;;;;;1.80;1.70;;;7.20;99.90;;;;;;5491570;26;20503;-66
2024/04/17 04:41:38;;;;;;;1.70;1.60;;;7.10;99.90;;;;;;5491285;26;20214;-66
2024/04/17 04:44:06;;;;;;;1.80;1.47;;;7.30;99.90;;;;;;5491265;26;20486;-66
2024/04/17 04:46:32;;;;;;;2.07;1.33;;;7.40;99.90;;;;;;5491191;26;20248;-66
2024/04/17 04:49:00;;;;;;;5.13;1.33;;;7.40;99.90;;;;;;5491153;26;20812;-66
2024/04/17 04:51:28;;;;;;;1.40;1.30;;;7.40;99.90;;;;;;5491084;26;20713;-66
2024/04/17 04:53:56;;;;;;;2.10;1.50;;;7.40;99.90;;;;;;5491148;26;20456;-66
2024/04/17 04:56:22;;;;;;;2.50;1.50;;;7.40;99.90;;;;;;5491078;26;20559;-66
2024/04/17 04:58:50;;;;;;;2.00;1.60;;;7.50;99.90;;;;;;5491064;26;20463;-65
2024/04/17 05:01:16;;;;;;;2.20;1.67;;;7.50;99.90;;;;;;5491013;26;20222;-66
2024/04/17 05:03:44;;;;;;;1.80;1.70;;;7.50;99.90;;;;;;5490915;26;20499;-66
2024/04/17 05:06:09;;;;;;;2.60;1.43;;;7.50;99.90;;;;;;5490871;26;20650;-66
2024/04/17 05:08:40;;;;;;;1.80;1.70;;;7.40;99.90;;;;;;5490821;26;20451;-66
2024/04/17 05:11:06;;;;;;;2.33;2.10;;;7.40;99.90;;;;;;5490865;26;20230;-66
2024/04/17 05:13:34;;;;;;;4.40;1.37;;;7.30;99.90;;;;;;5490702;26;20993;-66
2024/04/17 05:15:59;;;;;;;2.40;1.47;;;7.30;99.90;;;;;;5490874;26;20214;-66
2024/04/17 05:18:28;;;;;;;3.20;1.93;;;7.30;99.90;;;;;;5490794;26;20426;-66
2024/04/17 05:20:54;;;;;;;2.63;2.13;;;7.50;99.90;;;;;;5490295;26;20218;-66
2024/04/17 05:23:22;;;;;;;3.40;1.40;;;7.60;99.90;;;;;;5490574;26;20494;-66
2024/04/17 05:25:50;;;;;;;1.50;1.33;;;7.80;99.90;;;;;;5490812;26;20214;-65
2024/04/17 05:28:18;;;;;;;1.50;1.30;;;7.80;99.90;;;;;;5490612;26;20447;-66
2024/04/17 05:30:44;;;;;;;1.93;1.60;;;7.90;99.90;;;;;;5490645;26;20454;-66
2024/04/17 05:33:12;;;;;;;3.00;2.80;;;7.90;99.90;;;;;;5490340;26;20471;-66
2024/04/17 05:35:38;;;;;;;3.50;1.47;;;7.90;99.90;;;;;;5490649;26;20236;-66
2024/04/17 05:38:06;;;;;;;2.37;1.60;;;8.00;99.90;;;;;;5490466;26;20455;-65
2024/04/17 05:40:32;;;;;;;4.10;1.57;;;8.00;99.90;;;;;;5490343;26;20206;-65
2024/04/17 05:43:03;;;;;;;2.10;1.77;;;8.10;99.90;;;;;;5490269;26;20511;-66
2024/04/17 05:45:29;;;;;;;3.13;1.40;;;8.10;99.90;;;;;;5490364;26;20451;-66
2024/04/17 05:47:57;;;;;;;1.50;1.40;;;8.10;99.90;;;;;;5490262;26;20488;-66
2024/04/17 05:50:23;;;;;;;2.00;1.90;;;8.20;99.90;;;;;;5490098;26;20687;-66
2024/04/17 05:52:51;;;;;;;6.00;2.30;;;8.30;99.90;;;;;;5490004;26;20523;-66
2024/04/17 05:55:17;;;;;;;2.33;1.60;;;8.30;99.90;;;;;;5490117;26;20667;-66
2024/04/17 05:57:45;;;;;;;1.57;1.43;;;8.30;99.90;;;;;;5490070;26;20475;-66
2024/04/17 06:00:14;;;;;;;1.67;1.50;;;8.30;99.90;;;;;;5490092;26;20221;-66
2024/04/17 06:02:42;;;;;;;1.93;1.60;;;8.30;99.90;;;;;;5490331;26;20503;-66
2024/04/17 06:05:07;;;;;;;2.03;1.87;;;8.30;99.90;;;;;;5489800;26;20518;-66
2024/04/17 06:07:37;;;;;;;3.60;2.80;;;8.30;99.90;;;;;;5490166;26;20568;-66
2024/04/17 06:10:04;;;;;;;4.70;1.93;;;8.40;99.90;;;;;;5489723;26;20535;-66
2024/04/17 06:12:32;;;;;;;1.60;1.50;;;8.50;99.90;;;;;;5490053;26;20455;-66
2024/04/17 06:14:58;;;;;;;2.90;2.07;;;8.70;99.90;;;;;;5489855;26;20968;-66
2024/04/17 06:17:28;;;;;;;6.97;1.97;;;9.00;99.90;;;;;;5489763;26;20487;-66
2024/04/17 06:19:55;;;;;;;1.83;1.70;;;9.00;99.90;;;;;;5489925;26;20210;-67
2024/04/17 06:22:23;;;;;;;3.23;1.77;;;9.10;99.90;;;;;;5489741;26;20553;-66
2024/04/17 06:24:49;;;;;;;1.70;1.47;;;9.20;99.90;;;;;;5489854;26;20495;-66
2024/04/17 06:27:17;;;;;;;3.53;1.40;;;9.20;99.90;;;;;;5489820;26;20860;-66
2024/04/17 06:29:43;;;;;;;1.90;1.80;;;9.30;99.90;;;;;;5489868;26;20446;-66
2024/04/17 06:32:11;;;;;;;1.50;1.40;;;9.30;99.90;;;;;;5489601;26;20930;-66
2024/04/17 06:34:39;;;;;;;1.83;1.57;;;9.40;99.90;;;;;;5488599;26;20222;-67
2024/04/17 06:37:07;;;;;;;5.00;2.20;;;9.50;99.90;;;;;;5489560;26;20529;-67
2024/04/17 06:39:33;;;;;;;1.80;1.20;;;9.70;99.90;;;;;;5489562;26;21012;-67
2024/04/17 06:42:01;;;;;;;2.97;2.10;;;9.80;99.90;;;;;;5489374;26;20454;-67
2024/04/17 06:44:27;;;;;;;2.67;1.37;;;9.80;99.90;;;;;;5488918;26;20451;-67
2024/04/17 06:46:55;;;;;;;3.60;1.90;;;9.70;99.90;;;;;;5489113;26;20451;-67
2024/04/17 06:49:20;;;;;;;3.23;1.40;;;9.70;99.90;;;;;;5489071;26;20206;-67
2024/04/17 06:51:51;;;;;;;2.00;1.27;;;9.60;99.90;;;;;;5489128;26;20514;-67
2024/04/17 06:54:17;;;;;;;2.50;1.10;;;9.60;99.90;;;;;;5489258;26;20226;-66
2024/04/17 06:56:45;;;;;;;2.20;1.40;;;9.60;99.90;;;;;;5487923;26;20800;-67
2024/04/17 06:59:10;;;;;;;2.23;1.20;;;9.70;99.90;;;;;;5486776;26;20349;-67
2024/04/17 07:01:39;;;;;;;3.10;1.40;;;9.80;99.90;;;;;;5487942;26;20467;-67
2024/04/17 07:04:04;;;;;;;1.03;0.93;;;9.80;99.90;;;;;;5487715;26;20222;-67
2024/04/17 07:06:32;;;;;;;1.83;1.23;;;9.90;99.90;;;;;;5487978;26;20475;-67
2024/04/17 07:09:00;;;;;;;4.03;1.30;;;10.00;99.90;;;;;;5487140;26;20225;-67
2024/04/17 07:11:29;;;;;;;3.03;1.37;;;10.00;99.90;;;;;;5487820;26;20463;-67
2024/04/17 07:13:54;;;;;;;3.57;1.37;;;10.00;99.90;;;;;;5487416;26;20505;-67
2024/04/17 07:16:22;;;;;;;3.27;1.23;;;10.00;99.90;;;;;;5487712;26;20463;-66
2024/04/17 07:18:49;;;;;;;1.20;1.00;;;10.00;99.90;;;;;;5487843;26;20230;-66
2024/04/17 07:21:17;;;;;;;7.07;1.13;;;10.00;99.90;;;;;;5487605;26;20475;-67
2024/04/17 07:23:43;;;;;;;2.43;1.23;;;10.10;99.90;;;;;;5484233;26;20515;-67
2024/04/17 07:26:15;;;;;;;1.20;1.10;;;10.30;99.90;;;;;;5487681;26;20507;-67
2024/04/17 07:28:40;;;;;;;1.57;1.00;;;10.30;99.90;;;;;;5487830;26;20515;-67
2024/04/17 07:31:08;;;;;;;3.37;1.87;;;10.20;99.90;;;;;;5489035;26;20802;-67
2024/04/17 07:33:34;;;;;;;1.00;0.90;;;10.10;99.90;;;;;;5488808;26;20213;-67
2024/04/17 07:36:02;;;;;;;1.73;0.93;;;10.20;99.90;;;;;;5488593;26;20454;-67
2024/04/17 07:38:28;;;;;;;2.00;1.20;;;10.30;99.90;;;;;;5488613;26;20294;-67
2024/04/17 07:41:00;;;;;;;2.73;1.27;;;10.30;99.90;;;;;;5488634;26;20455;-67
2024/04/17 07:43:30;;;;;;;1.70;1.60;;;10.40;99.90;;;;;;5487938;26;20276;-67
2024/04/17 07:45:59;;;;;;;6.17;1.13;;;10.50;99.90;;;;;;5491379;26;20513;-66
2024/04/17 07:48:24;;;;;;;3.30;1.50;;;10.60;99.90;;;;;;5491422;26;20463;-66
2024/04/17 07:50:52;;;;;;;1.43;1.03;;;10.80;99.90;;;;;;5491412;26;20459;-67
2024/04/17 07:53:18;;;;;;;1.40;1.30;;;10.80;99.90;;;;;;5491597;26;20222;-66
2024/04/17 07:55:46;;;;;;;1.27;1.10;;;10.90;99.90;;;;;;5491224;26;20864;-67
2024/04/17 07:58:12;;;;;;;1.30;1.20;;;11.10;99.90;;;;;;5486479;26;20260;-67
2024/04/17 08:00:42;;;;;;;1.67;0.87;;;11.10;99.90;;;;;;5491275;26;20476;-67
2024/04/17 08:03:11;;;;;;;1.30;1.00;;;11.40;99.90;;;;;;5491020;26;20265;-68
2024/04/17 08:05:39;;;;;;;2.80;1.00;;;11.50;99.90;;;;;;5491120;26;20512;-67
2024/04/17 08:08:05;;;;;;;1.20;0.87;;;11.50;99.90;;;;;;5490972;26;20462;-67
2024/04/17 08:10:33;;;;;;;1.83;1.00;;;11.50;99.90;;;;;;5490892;26;20459;-67
2024/04/17 08:13:11;;;;;;;2.07;1.10;;;11.60;99.90;;;;;;5491199;26;21058;-67
2024/04/17 08:15:44;;;;;;;0.93;0.83;;;11.50;99.90;;;;;;5487540;26;20470;-67
2024/04/17 08:18:09;;;;;;;1.43;1.30;;;11.40;99.90;;;;;;5491453;26;20585;-67
2024/04/17 08:20:38;;;;;;;1.57;1.00;;;11.60;99.90;;;;;;5491672;26;20483;-66
2024/04/17 08:23:04;;;;;;;1.33;1.07;;;11.70;99.90;;;;;;5491502;26;20245;-67
2024/04/17 08:25:32;;;;;;;1.97;1.27;;;11.80;99.90;;;;;;5491317;26;20459;-67
2024/04/17 08:27:57;;;;;;;2.17;1.33;;;11.60;99.90;;;;;;5491507;26;20499;-67
2024/04/17 08:30:26;;;;;;;1.60;1.17;;;11.40;99.90;;;;;;5491551;26;20958;-67
2024/04/17 08:32:54;;;;;;;1.87;1.17;;;11.20;99.90;;;;;;5491482;26;20206;-67
2024/04/17 08:35:22;;;;;;;1.47;0.83;;;11.20;99.90;;;;;;5491441;26;20447;-67
2024/04/17 08:37:48;;;;;;;0.90;0.80;;;11.40;99.90;;;;;;5490670;26;20475;-66
2024/04/17 08:40:16;;;;;;;1.40;1.10;;;11.30;99.90;;;;;;5490834;26;20467;-67
2024/04/17 08:42:42;;;;;;;1.70;0.87;;;11.40;99.90;;;;;;5490859;26;20463;-67
2024/04/17 08:45:11;;;;;;;1.53;1.00;;;11.30;99.90;;;;;;5491114;26;20507;-67
2024/04/17 08:47:40;;;;;;;1.50;0.90;;;11.30;99.90;;;;;;5491460;26;20256;-66
2024/04/17 08:50:12;;;;;;;2.20;0.93;;;11.20;99.90;;;;;;5485830;26;20584;-67
2024/04/17 08:52:39;;;;;;;2.90;0.90;;;11.20;99.90;;;;;;5490690;26;20568;-67
2024/04/17 08:55:08;;;;;;;3.43;1.30;;;11.30;99.90;;;;;;5490346;26;20819;-67
2024/04/17 08:57:34;;;;;;;1.50;1.40;;;11.40;99.90;;;;;;5490262;26;20985;-67
2024/04/17 09:00:03;;;;;;;1.70;1.43;;;11.60;99.90;;;;;;5491129;26;20489;-65
2024/04/17 09:02:32;;;;;;;2.83;1.90;;;11.70;99.90;;;;;;5490740;26;20439;-67
2024/04/17 09:05:01;;;;;;;2.40;1.40;;;11.70;99.90;;;;;;5490435;26;21011;-67
2024/04/17 09:07:29;;;;;;;2.00;1.80;;;11.90;99.90;;;;;;5490489;26;21017;-67
2024/04/17 09:09:58;;;;;;;4.20;1.60;;;11.90;99.90;;;;;;5485299;26;20513;-67
2024/04/17 09:12:24;;;;;;;2.63;2.37;;;12.00;99.90;;;;;;5490254;26;20451;-67
2024/04/17 09:14:54;;;;;;;1.77;1.67;;;12.00;99.90;;;;;;5490175;26;20535;-68
2024/04/17 09:17:19;;;;;;;3.73;1.63;;;12.10;99.90;;;;;;5490248;26;20455;-68
2024/04/17 09:19:47;;;;;;;2.30;1.30;;;12.00;99.90;;;;;;5490131;26;20512;-68
2024/04/17 09:22:13;;;;;;;4.90;1.87;;;12.10;99.90;;;;;;5489963;26;20226;-68
2024/04/17 09:24:43;;;;;;;3.07;1.83;;;12.00;99.90;;;;;;5490091;26;20576;-67
2024/04/17 09:27:13;;;;;;;2.60;1.77;;;11.90;99.90;;;;;;5490675;26;20232;-67
2024/04/17 09:29:41;;;;;;;2.37;1.73;;;11.70;99.90;;;;;;5490285;26;20485;-67
2024/04/17 09:32:12;;;;;;;2.10;1.77;;;11.70;99.90;;;;;;5490573;26;20451;-67
2024/04/17 09:34:41;;;;;;;2.23;2.03;;;11.70;99.90;;;;;;5490694;26;20967;-67
2024/04/17 09:37:08;;;;;;;3.57;1.73;;;11.80;99.90;;;;;;5490426;26;20545;-68
2024/04/17 09:39:36;;;;;;;3.00;1.87;;;11.70;99.90;;;;;;5491004;26;20770;-67
2024/04/17 09:42:07;;;;;;;1.70;1.60;;;11.80;99.90;;;;;;5490542;26;20961;-67
2024/04/17 09:44:42;;;;;;;3.00;2.10;;;11.90;99.90;;;;;;5490235;26;20447;-67
2024/04/17 09:47:09;;;;;;;2.67;1.97;;;12.00;99.90;;;;;;5490253;26;20450;-67
2024/04/17 09:49:39;;;;;;;1.73;1.63;;;12.20;99.90;;;;;;5490140;26;20561;-67
2024/04/17 09:52:07;;;;;;;1.90;1.80;;;12.40;99.90;;;;;;5490317;26;20768;-67
2024/04/17 09:54:36;;;;;;;2.60;2.27;;;12.60;99.90;;;;;;5489965;26;20510;-68
2024/04/17 09:57:03;;;;;;;3.93;1.70;;;12.50;99.90;;;;;;5490029;26;20590;-67
2024/04/17 09:59:36;;;;;;;2.53;2.33;;;12.50;99.90;;;;;;5489309;26;20535;-67
2024/04/17 10:02:03;;;;;;;2.70;2.13;;;12.60;99.90;;;;;;5486877;26;20995;-67
2024/04/17 10:04:32;;;;;;;3.10;1.70;;;12.60;99.90;;;;;;5490118;26;20447;-67
2024/04/17 10:06:59;;;;;;;2.27;2.07;;;12.60;99.90;;;;;;5489568;26;20456;-67
2024/04/17 10:09:32;;;;;;;1.87;1.40;;;12.80;99.90;;;;;;5487980;26;20478;-67
2024/04/17 10:11:59;;;;;;;2.27;2.03;;;12.70;99.90;;;;;;5490034;26;20828;-67
2024/04/17 10:14:28;;;;;;;3.00;1.70;;;12.60;99.90;;;;;;5489724;26;20455;-67
2024/04/17 10:16:57;;;;;;;2.47;1.60;;;12.50;99.90;;;;;;5489592;26;20832;-67
2024/04/17 10:19:25;;;;;;;2.27;1.60;;;12.70;99.90;;;;;;5489497;26;20457;-67
2024/04/17 10:21:54;;;;;;;2.27;1.87;;;12.70;99.90;;;;;;5489623;26;20489;-65
2024/04/17 10:24:22;;;;;;;2.30;1.67;;;12.40;99.90;;;;;;5489586;26;20974;-67
2024/04/17 10:26:50;;;;;;;1.97;1.80;;;12.40;99.90;;;;;;5489627;26;20445;-67
2024/04/17 10:29:19;;;;;;;1.80;1.70;;;12.50;99.90;;;;;;5489686;26;20550;-67
2024/04/17 10:32:00;;;;;;;3.47;1.53;;;12.30;99.90;;;;;;5489711;26;20495;-66
2024/04/17 10:34:29;;;;;;;2.83;2.40;;;11.90;99.90;;;;;;5489561;26;20507;-66
2024/04/17 10:36:59;;;;;;;3.20;2.03;;;11.60;99.90;;;;;;5489573;26;20451;-67
2024/04/17 10:39:28;;;;;;;3.70;1.73;;;11.30;99.90;;;;;;5489473;26;21017;-66
2024/04/17 10:41:53;;;;;;;2.50;1.47;;;11.10;99.90;;;;;;5489480;26;20446;-66
2024/04/17 10:44:22;;;;;;;2.13;1.90;;;11.00;99.90;;;;;;5489479;26;20504;-66
2024/04/17 10:46:47;;;;;;;2.13;1.90;;;11.00;99.90;;;;;;5489337;26;20217;-66
2024/04/17 10:49:25;;;;;;;3.53;1.73;;;11.20;99.90;;;;;;5489422;26;20495;-66
2024/04/17 10:51:53;;;;;;;1.77;1.63;;;11.30;99.90;;;;;;5489547;26;20233;-65
2024/04/17 10:54:23;;;;;;;2.13;1.40;;;11.40;99.90;;;;;;5489226;26;20475;-65
2024/04/17 10:56:48;;;;;;;1.33;1.23;;;11.50;99.90;;;;;;5489115;26;20451;-66
2024/04/17 10:59:17;;;;;;;1.43;1.33;;;11.80;99.90;;;;;;5489359;26;20494;-65
2024/04/17 11:01:42;;;;;;;3.23;1.17;;;12.10;99.90;;;;;;5489035;26;20245;-65
2024/04/17 11:04:12;;;;;;;1.40;1.30;;;12.30;99.90;;;;;;5488983;26;20459;-65
2024/04/17 11:06:41;;;;;;;1.70;1.40;;;12.40;99.90;;;;;;5489136;26;20217;-66
2024/04/17 11:09:10;;;;;;;2.40;1.23;;;12.70;99.90;;;;;;5488977;26;20451;-65
2024/04/17 11:11:35;;;;;;;1.10;1.00;;;13.00;99.90;;;;;;5488860;26;20718;-65
2024/04/17 11:14:03;;;;;;;1.23;1.10;;;13.20;99.90;;;;;;5488720;26;20451;-65
2024/04/17 11:16:29;;;;;;;2.23;1.50;;;13.50;99.90;;;;;;5489064;26;20275;-65
2024/04/17 11:18:58;;;;;;;1.53;1.20;;;13.70;99.90;;;;;;5489298;26;20982;-66
2024/04/17 11:21:23;;;;;;;1.40;1.30;;;14.00;99.90;;;;;;5492450;26;20210;-65
2024/04/17 11:23:54;;;;;;;1.47;1.37;;;14.00;99.80;;;;;;5492455;26;20491;-66
2024/04/17 11:26:19;;;;;;;1.67;1.33;;;14.30;99.90;;;;;;5491672;26;20212;-65
2024/04/17 11:28:48;;;;;;;1.20;1.10;;;14.50;99.90;;;;;;5492115;26;20448;-65
2024/04/17 11:31:15;;;;;;;1.63;1.30;;;14.40;99.60;;;;;;5492199;26;20250;-66
2024/04/17 11:33:47;;;;;;;1.80;1.27;;;14.40;99.90;;;;;;5492014;26;20453;-66
2024/04/17 11:36:14;;;;;;;1.83;1.50;;;14.20;99.90;;;;;;5492171;26;20501;-66
2024/04/17 11:38:43;;;;;;;1.83;1.73;;;14.10;99.90;;;;;;5492255;26;20889;-66
2024/04/17 11:41:13;;;;;;;1.57;0.93;;;14.20;98.20;;;;;;5492236;26;20494;-66
2024/04/17 11:43:41;;;;;;;1.33;1.10;;;13.90;95.20;;;;;;5492405;26;20497;-66
2024/04/17 11:46:07;;;;;;;2.80;1.20;;;13.70;95.70;;;;;;5491721;26;20498;-66
2024/04/17 11:48:43;;;;;;;5.93;1.30;;;13.60;97.00;;;;;;5492010;26;20839;-66
2024/04/17 11:51:09;;;;;;;1.23;1.10;;;13.30;97.10;;;;;;5491884;26;20207;-66
2024/04/17 11:53:37;;;;;;;2.33;1.20;;;13.10;96.50;;;;;;5492228;26;20510;-66
2024/04/17 11:56:04;;;;;;;2.10;1.13;;;12.80;99.10;;;;;;5491731;26;20985;-66
2024/04/17 11:58:34;;;;;;;1.63;1.10;;;12.40;99.90;;;;;;5491987;26;20455;-66
2024/04/17 12:01:00;;;;;;;2.63;1.60;;;12.10;99.90;;;;;;5491987;26;20459;-66
2024/04/17 12:03:31;;;;;;;1.73;1.40;;;11.80;99.90;;;;;;5491814;26;20488;-66
2024/04/17 12:05:56;;;;;;;2.13;1.40;;;11.70;99.90;;;;;;5491792;26;20594;-65
2024/04/17 12:08:27;;;;;;;3.20;1.67;;;11.70;99.90;;;;;;5491502;26;20502;-65
2024/04/17 12:10:52;;;;;;;5.27;1.20;;;11.70;99.90;;;;;;5491734;26;20260;-65
2024/04/17 12:13:21;;;;;;;1.80;1.27;;;11.90;99.90;;;;;;5491566;26;20452;-66
2024/04/17 12:15:49;;;;;;;1.37;1.27;;;11.90;99.90;;;;;;5491769;26;20218;-67
2024/04/17 12:18:17;;;;;;;1.93;1.23;;;12.00;99.90;;;;;;5491706;26;20453;-67
2024/04/17 12:20:42;;;;;;;2.90;1.50;;;11.90;99.90;;;;;;5491515;26;20507;-67
2024/04/17 12:23:18;;;;;;;1.47;1.10;;;12.00;99.90;;;;;;5491550;26;20459;-67
2024/04/17 12:28:31;;;;;;;4.60;1.77;;;12.20;99.90;;;;;;5494276;26;20873;-67
2024/04/17 12:31:02;;;;;;;3.00;1.40;;;12.40;99.90;;;;;;5490158;26;20493;-67
2024/04/17 12:33:31;;;;;;;1.90;1.10;;;12.70;99.90;;;;;;5491457;26;20434;-67
2024/04/17 12:35:59;;;;;;;3.00;1.10;;;13.10;99.90;;;;;;5491331;26;20447;-67
2024/04/17 12:38:27;;;;;;;3.37;1.30;;;13.50;99.90;;;;;;5491144;26;20493;-67
2024/04/17 12:40:55;;;;;;;1.13;1.03;;;13.70;99.90;;;;;;5491246;26;20803;-67
2024/04/17 12:43:23;;;;;;;1.40;1.07;;;14.00;99.90;;;;;;5491281;26;20502;-67
2024/04/17 12:45:51;;;;;;;1.17;0.80;;;14.30;95.70;;;;;;5491101;26;20501;-67
2024/04/17 12:48:22;;;;;;;1.30;1.20;;;14.60;95.10;;;;;;5491014;26;20464;-67
2024/04/17 12:50:50;;;;;;;1.00;0.90;;;14.60;91.40;;;;;;5491649;26;20843;-67
2024/04/17 12:53:20;;;;;;;2.20;0.90;;;14.60;91.50;;;;;;5491277;26;20449;-65
2024/04/17 12:55:53;;;;;;;1.30;1.00;;;14.70;91.20;;;;;;5490772;26;20505;-66
2024/04/17 12:58:21;;;;;;;2.17;1.20;;;14.90;85.40;;;;;;5490396;26;20519;-66